sensor_id;sensor_type;location;lat;lon;timestamp;pressure;altitude;pressure_sealevel;temperature;humidity
59789;BME280;47353;51.614;5.530;2023-01-28T00:01:18;102846.03;;;2.67;88.26
59789;BME280;47353;51.614;5.530;2023-01-28T00:03:43;102832.38;;;2.67;88.76
59789;BME280;47353;51.614;5.530;2023-01-28T00:06:14;102832.56;;;2.65;88.73
59789;BME280;47353;51.614;5.530;2023-01-28T00:08:40;102842.31;;;2.68;88.97
59789;BME280;47353;51.614;5.530;2023-01-28T00:11:07;102842.84;;;2.63;88.30
59789;BME280;47353;51.614;5.530;2023-01-28T00:13:34;102848.13;;;2.65;88.39
59789;BME280;47353;51.614;5.530;2023-01-28T00:16:02;102844.88;;;2.61;87.82
59789;BME280;47353;51.614;5.530;2023-01-28T00:18:29;102848.66;;;2.60;88.31
59789;BME280;47353;51.614;5.530;2023-01-28T00:21:15;102847.25;;;2.64;88.83
59789;BME280;47353;51.614;5.530;2023-01-28T00:23:41;102850.84;;;2.65;88.97
59789;BME280;47353;51.614;5.530;2023-01-28T00:26:12;102854.44;;;2.65;88.40
59789;BME280;47353;51.614;5.530;2023-01-28T00:28:38;102843.50;;;2.65;88.64
59789;BME280;47353;51.614;5.530;2023-01-28T00:33:38;102862.81;;;2.64;88.54
59789;BME280;47353;51.614;5.530;2023-01-28T00:36:04;102851.22;;;2.62;88.53
59789;BME280;47353;51.614;5.530;2023-01-28T00:38:31;102857.34;;;2.64;88.96
59789;BME280;47353;51.614;5.530;2023-01-28T00:41:10;102858.88;;;2.66;88.96
59789;BME280;47353;51.614;5.530;2023-01-28T00:43:36;102862.63;;;2.65;88.90
59789;BME280;47353;51.614;5.530;2023-01-28T00:46:02;102856.34;;;2.65;89.06
59789;BME280;47353;51.614;5.530;2023-01-28T00:48:28;102851.03;;;2.63;88.75
59789;BME280;47353;51.614;5.530;2023-01-28T00:50:53;102852.91;;;2.63;88.25
59789;BME280;47353;51.614;5.530;2023-01-28T00:53:19;102862.97;;;2.62;88.70
59789;BME280;47353;51.614;5.530;2023-01-28T00:55:44;102861.97;;;2.63;88.97
59789;BME280;47353;51.614;5.530;2023-01-28T00:58:09;102867.44;;;2.63;89.04
59789;BME280;47353;51.614;5.530;2023-01-28T01:00:35;102863.84;;;2.63;88.93
59789;BME280;47353;51.614;5.530;2023-01-28T01:03:00;102870.53;;;2.60;87.92
59789;BME280;47353;51.614;5.530;2023-01-28T01:05:25;102869.31;;;2.63;87.34
59789;BME280;47353;51.614;5.530;2023-01-28T01:07:51;102869.31;;;2.63;87.37
59789;BME280;47353;51.614;5.530;2023-01-28T01:10:18;102862.31;;;2.60;87.75
59789;BME280;47353;51.614;5.530;2023-01-28T01:12:48;102865.88;;;2.61;88.09
59789;BME280;47353;51.614;5.530;2023-01-28T01:15:14;102862.69;;;2.57;88.01
59789;BME280;47353;51.614;5.530;2023-01-28T01:17:42;102857.38;;;2.56;88.56
59789;BME280;47353;51.614;5.530;2023-01-28T01:20:13;102871.72;;;2.58;88.70
59789;BME280;47353;51.614;5.530;2023-01-28T01:22:39;102867.28;;;2.57;88.68
59789;BME280;47353;51.614;5.530;2023-01-28T01:25:05;102864.72;;;2.55;86.57
59789;BME280;47353;51.614;5.530;2023-01-28T01:27:31;102860.28;;;2.54;87.10
59789;BME280;47353;51.614;5.530;2023-01-28T01:29:56;102857.06;;;2.51;86.90
59789;BME280;47353;51.614;5.530;2023-01-28T01:32:24;102852.97;;;2.47;87.10
59789;BME280;47353;51.614;5.530;2023-01-28T01:34:49;102854.16;;;2.52;87.49
59789;BME280;47353;51.614;5.530;2023-01-28T01:37:15;102856.19;;;2.50;87.64
59789;BME280;47353;51.614;5.530;2023-01-28T01:39:40;102861.47;;;2.52;87.96
59789;BME280;47353;51.614;5.530;2023-01-28T01:42:10;102875.16;;;2.52;88.15
59789;BME280;47353;51.614;5.530;2023-01-28T01:44:58;102859.97;;;2.49;88.21
59789;BME280;47353;51.614;5.530;2023-01-28T01:50:13;102875.31;;;2.50;88.35
59789;BME280;47353;51.614;5.530;2023-01-28T01:52:41;102864.56;;;2.49;88.56
59789;BME280;47353;51.614;5.530;2023-01-28T01:55:11;102863.75;;;2.48;88.98
59789;BME280;47353;51.614;5.530;2023-01-28T01:57:38;102866.94;;;2.52;88.86
59789;BME280;47353;51.614;5.530;2023-01-28T02:00:06;102867.47;;;2.47;88.60
59789;BME280;47353;51.614;5.530;2023-01-28T02:02:36;102862.00;;;2.47;88.71
59789;BME280;47353;51.614;5.530;2023-01-28T02:05:02;102880.13;;;2.48;88.90
59789;BME280;47353;51.614;5.530;2023-01-28T02:07:28;102865.59;;;2.48;88.85
59789;BME280;47353;51.614;5.530;2023-01-28T02:09:54;102873.13;;;2.46;88.41
59789;BME280;47353;51.614;5.530;2023-01-28T02:12:23;102874.34;;;2.43;88.27
59789;BME280;47353;51.614;5.530;2023-01-28T02:14:57;102871.09;;;2.40;88.05
59789;BME280;47353;51.614;5.530;2023-01-28T02:17:25;102875.16;;;2.44;88.72
59789;BME280;47353;51.614;5.530;2023-01-28T02:19:58;102873.28;;;2.44;89.03
59789;BME280;47353;51.614;5.530;2023-01-28T02:25:38;102872.59;;;2.42;88.58
59789;BME280;47353;51.614;5.530;2023-01-28T02:33:33;102871.94;;;2.40;88.48
59789;BME280;47353;51.614;5.530;2023-01-28T02:38:52;102869.75;;;2.36;88.76
59789;BME280;47353;51.614;5.530;2023-01-28T02:41:28;102867.66;;;2.38;89.07
59789;BME280;47353;51.614;5.530;2023-01-28T02:43:56;102862.53;;;2.35;88.69
59789;BME280;47353;51.614;5.530;2023-01-28T02:46:35;102869.75;;;2.36;88.64
59789;BME280;47353;51.614;5.530;2023-01-28T02:49:27;102875.38;;;2.34;88.64
59789;BME280;47353;51.614;5.530;2023-01-28T02:52:01;102877.06;;;2.35;88.85
59789;BME280;47353;51.614;5.530;2023-01-28T03:00:38;102871.78;;;2.34;88.44
59789;BME280;47353;51.614;5.530;2023-01-28T03:03:15;102871.44;;;2.29;88.10
59789;BME280;47353;51.614;5.530;2023-01-28T03:05:50;102877.09;;;2.27;87.89
59789;BME280;47353;51.614;5.530;2023-01-28T03:11:29;102863.59;;;2.26;87.65
59789;BME280;47353;51.614;5.530;2023-01-28T03:14:15;102869.41;;;2.23;86.54
59789;BME280;47353;51.614;5.530;2023-01-28T03:17:00;102878.63;;;2.22;85.80
59789;BME280;47353;51.614;5.530;2023-01-28T03:19:46;102881.19;;;2.23;86.14
59789;BME280;47353;51.614;5.530;2023-01-28T03:22:34;102887.50;;;2.24;86.37
59789;BME280;47353;51.614;5.530;2023-01-28T03:25:21;102884.09;;;2.22;85.99
59789;BME280;47353;51.614;5.530;2023-01-28T03:28:10;102870.78;;;2.19;86.11
59789;BME280;47353;51.614;5.530;2023-01-28T03:31:02;102876.75;;;2.22;87.27
59789;BME280;47353;51.614;5.530;2023-01-28T03:33:48;102883.75;;;2.17;87.66
59789;BME280;47353;51.614;5.530;2023-01-28T03:36:34;102875.03;;;2.13;87.98
59789;BME280;47353;51.614;5.530;2023-01-28T03:39:17;102885.47;;;2.18;88.19
59789;BME280;47353;51.614;5.530;2023-01-28T03:41:58;102885.97;;;2.21;88.81
59789;BME280;47353;51.614;5.530;2023-01-28T03:44:25;102884.44;;;2.19;89.14
59789;BME280;47353;51.614;5.530;2023-01-28T03:47:09;102878.28;;;2.17;89.51
59789;BME280;47353;51.614;5.530;2023-01-28T03:49:38;102871.97;;;2.16;89.65
59789;BME280;47353;51.614;5.530;2023-01-28T03:52:04;102881.38;;;2.14;89.72
59789;BME280;47353;51.614;5.530;2023-01-28T03:54:29;102882.25;;;2.14;90.00
59789;BME280;47353;51.614;5.530;2023-01-28T03:56:54;102879.84;;;2.11;90.23
59789;BME280;47353;51.614;5.530;2023-01-28T03:59:20;102887.19;;;2.11;90.33
59789;BME280;47353;51.614;5.530;2023-01-28T04:01:45;102890.94;;;2.10;90.82
59789;BME280;47353;51.614;5.530;2023-01-28T04:04:11;102888.41;;;2.08;91.16
59789;BME280;47353;51.614;5.530;2023-01-28T04:06:47;102902.22;;;2.07;91.28
59789;BME280;47353;51.614;5.530;2023-01-28T04:09:12;102901.34;;;2.06;91.49
59789;BME280;47353;51.614;5.530;2023-01-28T04:11:38;102909.56;;;2.06;91.34
59789;BME280;47353;51.614;5.530;2023-01-28T04:14:03;102903.22;;;2.06;91.44
59789;BME280;47353;51.614;5.530;2023-01-28T04:16:29;102916.88;;;2.06;91.45
59789;BME280;47353;51.614;5.530;2023-01-28T04:18:54;102907.16;;;2.03;91.26
59789;BME280;47353;51.614;5.530;2023-01-28T04:21:20;102917.91;;;2.05;91.25
59789;BME280;47353;51.614;5.530;2023-01-28T04:23:45;102906.31;;;2.03;91.38
59789;BME280;47353;51.614;5.530;2023-01-28T04:26:11;102909.38;;;2.00;91.41
59789;BME280;47353;51.614;5.530;2023-01-28T04:28:36;102912.81;;;2.02;91.69
59789;BME280;47353;51.614;5.530;2023-01-28T04:31:02;102910.06;;;2.02;91.61
59789;BME280;47353;51.614;5.530;2023-01-28T04:33:27;102896.06;;;1.97;91.48
59789;BME280;47353;51.614;5.530;2023-01-28T04:35:52;102903.91;;;2.00;91.26
59789;BME280;47353;51.614;5.530;2023-01-28T04:38:18;102898.63;;;1.98;91.14
59789;BME280;47353;51.614;5.530;2023-01-28T04:40:43;102893.00;;;2.00;91.16
59789;BME280;47353;51.614;5.530;2023-01-28T04:43:09;102897.75;;;1.98;90.98
59789;BME280;47353;51.614;5.530;2023-01-28T04:45:34;102896.25;;;1.95;91.08
59789;BME280;47353;51.614;5.530;2023-01-28T04:47:59;102902.72;;;1.94;91.25
59789;BME280;47353;51.614;5.530;2023-01-28T04:50:25;102900.16;;;1.93;91.48
59789;BME280;47353;51.614;5.530;2023-01-28T04:52:50;102905.81;;;1.91;91.26
59789;BME280;47353;51.614;5.530;2023-01-28T04:55:16;102896.22;;;1.87;91.06
59789;BME280;47353;51.614;5.530;2023-01-28T04:57:41;102912.97;;;1.92;91.49
59789;BME280;47353;51.614;5.530;2023-01-28T05:00:07;102916.72;;;1.91;91.31
59789;BME280;47353;51.614;5.530;2023-01-28T05:02:32;102913.31;;;1.89;91.73
59789;BME280;47353;51.614;5.530;2023-01-28T05:04:58;102921.66;;;1.88;91.20
59789;BME280;47353;51.614;5.530;2023-01-28T05:07:25;102914.00;;;1.83;90.91
59789;BME280;47353;51.614;5.530;2023-01-28T05:09:51;102916.22;;;1.88;91.31
59789;BME280;47353;51.614;5.530;2023-01-28T05:12:16;102910.06;;;1.86;91.46
59789;BME280;47353;51.614;5.530;2023-01-28T05:14:41;102912.59;;;1.87;91.49
59789;BME280;47353;51.614;5.530;2023-01-28T05:17:08;102922.00;;;1.85;91.04
59789;BME280;47353;51.614;5.530;2023-01-28T05:19:33;102920.44;;;1.82;90.45
59789;BME280;47353;51.614;5.530;2023-01-28T05:21:58;102924.22;;;1.81;89.76
59789;BME280;47353;51.614;5.530;2023-01-28T05:24:24;102915.31;;;1.79;88.86
59789;BME280;47353;51.614;5.530;2023-01-28T05:26:49;102916.19;;;1.80;88.16
59789;BME280;47353;51.614;5.530;2023-01-28T05:29:15;102912.44;;;1.81;87.88
59789;BME280;47353;51.614;5.530;2023-01-28T05:31:40;102915.50;;;1.77;86.91
59789;BME280;47353;51.614;5.530;2023-01-28T05:34:05;102913.97;;;1.75;85.57
59789;BME280;47353;51.614;5.530;2023-01-28T05:36:31;102910.91;;;1.78;86.01
59789;BME280;47353;51.614;5.530;2023-01-28T05:38:56;102901.19;;;1.76;85.98
59789;BME280;47353;51.614;5.530;2023-01-28T05:41:21;102902.03;;;1.76;86.23
59789;BME280;47353;51.614;5.530;2023-01-28T05:43:47;102900.16;;;1.77;86.21
59789;BME280;47353;51.614;5.530;2023-01-28T05:46:12;102895.72;;;1.76;85.79
59789;BME280;47353;51.614;5.530;2023-01-28T05:48:37;102892.81;;;1.77;86.03
59789;BME280;47353;51.614;5.530;2023-01-28T05:51:03;102905.78;;;1.75;85.70
59789;BME280;47353;51.614;5.530;2023-01-28T05:53:29;102912.94;;;1.76;85.57
59789;BME280;47353;51.614;5.530;2023-01-28T05:55:55;102913.81;;;1.77;85.50
59789;BME280;47353;51.614;5.530;2023-01-28T05:58:20;102925.59;;;1.77;85.17
59789;BME280;47353;51.614;5.530;2023-01-28T06:00:46;102920.28;;;1.76;84.82
59789;BME280;47353;51.614;5.530;2023-01-28T06:03:11;102912.09;;;1.76;85.23
59789;BME280;47353;51.614;5.530;2023-01-28T06:05:37;102919.59;;;1.73;85.29
59789;BME280;47353;51.614;5.530;2023-01-28T06:08:03;102922.34;;;1.73;85.15
59789;BME280;47353;51.614;5.530;2023-01-28T06:10:29;102917.91;;;1.73;85.23
59789;BME280;47353;51.614;5.530;2023-01-28T06:12:54;102920.63;;;1.73;85.07
59789;BME280;47353;51.614;5.530;2023-01-28T06:15:20;102929.16;;;1.69;84.38
59789;BME280;47353;51.614;5.530;2023-01-28T06:17:45;102927.09;;;1.71;84.51
59789;BME280;47353;51.614;5.530;2023-01-28T06:20:12;102914.28;;;1.64;84.45
59789;BME280;47353;51.614;5.530;2023-01-28T06:22:37;102914.66;;;1.69;84.65
59789;BME280;47353;51.614;5.530;2023-01-28T06:25:03;102920.81;;;1.71;84.38
59789;BME280;47353;51.614;5.530;2023-01-28T06:27:29;102918.41;;;1.68;84.64
59789;BME280;47353;51.614;5.530;2023-01-28T06:29:54;102925.75;;;1.67;84.08
59789;BME280;47353;51.614;5.530;2023-01-28T06:32:19;102920.63;;;1.64;84.05
59789;BME280;47353;51.614;5.530;2023-01-28T06:34:45;102926.06;;;1.64;84.11
59789;BME280;47353;51.614;5.530;2023-01-28T06:37:14;102927.06;;;1.63;83.39
59789;BME280;47353;51.614;5.530;2023-01-28T06:39:39;102920.44;;;1.58;82.60
59789;BME280;47353;51.614;5.530;2023-01-28T06:42:05;102925.88;;;1.58;83.05
59789;BME280;47353;51.614;5.530;2023-01-28T06:44:30;102935.09;;;1.57;82.85
59789;BME280;47353;51.614;5.530;2023-01-28T06:46:56;102935.59;;;1.60;84.13
59789;BME280;47353;51.614;5.530;2023-01-28T06:49:21;102933.22;;;1.57;84.19
59789;BME280;47353;51.614;5.530;2023-01-28T06:51:47;102934.94;;;1.58;84.08
59789;BME280;47353;51.614;5.530;2023-01-28T06:54:12;102933.03;;;1.59;84.35
59789;BME280;47353;51.614;5.530;2023-01-28T06:56:38;102927.44;;;1.52;83.56
59789;BME280;47353;51.614;5.530;2023-01-28T06:59:03;102937.31;;;1.53;83.83
59789;BME280;47353;51.614;5.530;2023-01-28T07:01:29;102928.09;;;1.46;84.08
59789;BME280;47353;51.614;5.530;2023-01-28T07:03:55;102933.19;;;1.41;82.97
59789;BME280;47353;51.614;5.530;2023-01-28T07:06:20;102940.88;;;1.46;83.45
59789;BME280;47353;51.614;5.530;2023-01-28T07:08:46;102941.91;;;1.45;83.74
59789;BME280;47353;51.614;5.530;2023-01-28T07:11:11;102933.38;;;1.48;83.49
59789;BME280;47353;51.614;5.530;2023-01-28T07:13:37;102947.03;;;1.48;83.21
59789;BME280;47353;51.614;5.530;2023-01-28T07:16:02;102950.25;;;1.51;83.96
59789;BME280;47353;51.614;5.530;2023-01-28T07:18:29;102945.81;;;1.42;83.46
59789;BME280;47353;51.614;5.530;2023-01-28T07:20:54;102961.00;;;1.45;83.11
59789;BME280;47353;51.614;5.530;2023-01-28T07:23:20;102964.91;;;1.42;81.56
59789;BME280;47353;51.614;5.530;2023-01-28T07:25:46;102963.38;;;1.40;80.74
59789;BME280;47353;51.614;5.530;2023-01-28T07:28:11;102967.63;;;1.42;81.86
59789;BME280;47353;51.614;5.530;2023-01-28T07:30:37;102973.25;;;1.41;81.69
59789;BME280;47353;51.614;5.530;2023-01-28T07:33:02;102973.94;;;1.43;81.71
59789;BME280;47353;51.614;5.530;2023-01-28T07:35:28;102975.13;;;1.40;82.21
59789;BME280;47353;51.614;5.530;2023-01-28T07:37:58;102981.28;;;1.42;81.93
59789;BME280;47353;51.614;5.530;2023-01-28T07:40:25;102984.16;;;1.41;82.10
59789;BME280;47353;51.614;5.530;2023-01-28T07:42:51;102989.63;;;1.41;81.74
59789;BME280;47353;51.614;5.530;2023-01-28T07:45:18;102985.69;;;1.43;82.15
59789;BME280;47353;51.614;5.530;2023-01-28T07:47:43;102982.97;;;1.43;82.15
59789;BME280;47353;51.614;5.530;2023-01-28T07:50:09;102981.09;;;1.44;82.01
59789;BME280;47353;51.614;5.530;2023-01-28T07:52:36;102979.06;;;1.46;82.20
59789;BME280;47353;51.614;5.530;2023-01-28T07:55:10;102986.41;;;1.45;81.01
59789;BME280;47353;51.614;5.530;2023-01-28T07:57:36;102982.84;;;1.45;81.54
59789;BME280;47353;51.614;5.530;2023-01-28T08:00:02;102985.56;;;1.45;81.37
59789;BME280;47353;51.614;5.530;2023-01-28T08:02:28;102985.22;;;1.48;81.32
59789;BME280;47353;51.614;5.530;2023-01-28T08:04:54;102987.97;;;1.48;80.87
59789;BME280;47353;51.614;5.530;2023-01-28T08:07:23;102981.09;;;1.44;80.53
59789;BME280;47353;51.614;5.530;2023-01-28T08:09:50;102986.59;;;1.52;81.15
59789;BME280;47353;51.614;5.530;2023-01-28T08:12:15;102985.56;;;1.53;81.26
59789;BME280;47353;51.614;5.530;2023-01-28T08:14:41;103000.94;;;1.54;80.76
59789;BME280;47353;51.614;5.530;2023-01-28T08:17:06;103004.50;;;1.54;79.87
59789;BME280;47353;51.614;5.530;2023-01-28T08:19:31;103010.81;;;1.55;79.51
59789;BME280;47353;51.614;5.530;2023-01-28T08:21:57;103011.16;;;1.52;80.20
59789;BME280;47353;51.614;5.530;2023-01-28T08:24:22;103015.44;;;1.62;80.86
59789;BME280;47353;51.614;5.530;2023-01-28T08:26:47;103017.16;;;1.63;80.54
59789;BME280;47353;51.614;5.530;2023-01-28T08:29:13;103022.81;;;1.70;80.63
59789;BME280;47353;51.614;5.530;2023-01-28T08:31:38;103031.84;;;1.70;80.25
59789;BME280;47353;51.614;5.530;2023-01-28T08:34:04;103026.22;;;1.72;80.15
59789;BME280;47353;51.614;5.530;2023-01-28T08:36:29;103017.00;;;1.73;80.15
59789;BME280;47353;51.614;5.530;2023-01-28T08:38:55;103034.28;;;1.82;80.57
59789;BME280;47353;51.614;5.530;2023-01-28T08:41:21;103023.19;;;1.83;79.97
59789;BME280;47353;51.614;5.530;2023-01-28T08:43:47;103031.56;;;1.98;80.44
59789;BME280;47353;51.614;5.530;2023-01-28T08:46:12;103041.31;;;2.00;79.96
59789;BME280;47353;51.614;5.530;2023-01-28T08:48:38;103029.38;;;2.01;79.01
59789;BME280;47353;51.614;5.530;2023-01-28T08:51:04;103036.53;;;2.02;79.16
59789;BME280;47353;51.614;5.530;2023-01-28T08:53:30;103018.94;;;1.97;79.67
59789;BME280;47353;51.614;5.530;2023-01-28T08:55:55;103046.13;;;2.06;79.75
59789;BME280;47353;51.614;5.530;2023-01-28T08:58:21;103049.53;;;2.08;79.99
59789;BME280;47353;51.614;5.530;2023-01-28T09:00:47;103029.91;;;2.05;79.67
59789;BME280;47353;51.614;5.530;2023-01-28T09:03:12;103037.06;;;2.06;79.76
59789;BME280;47353;51.614;5.530;2023-01-28T09:05:38;103032.97;;;2.10;80.29
59789;BME280;47353;51.614;5.530;2023-01-28T09:08:09;103042.88;;;2.11;79.54
59789;BME280;47353;51.614;5.530;2023-01-28T09:10:35;103039.25;;;2.02;79.78
59789;BME280;47353;51.614;5.530;2023-01-28T09:13:12;103047.13;;;2.05;79.24
59789;BME280;47353;51.614;5.530;2023-01-28T09:15:39;103058.91;;;2.06;79.50
59789;BME280;47353;51.614;5.530;2023-01-28T09:18:04;103072.56;;;2.06;79.92
59789;BME280;47353;51.614;5.530;2023-01-28T09:20:30;103070.34;;;2.01;79.53
59789;BME280;47353;51.614;5.530;2023-01-28T09:22:58;103063.69;;;1.96;79.39
59789;BME280;47353;51.614;5.530;2023-01-28T09:25:23;103064.34;;;1.90;79.34
59789;BME280;47353;51.614;5.530;2023-01-28T09:27:49;103066.03;;;1.91;79.72
59789;BME280;47353;51.614;5.530;2023-01-28T09:30:14;103071.69;;;1.97;80.23
59789;BME280;47353;51.614;5.530;2023-01-28T09:32:40;103060.44;;;2.00;79.47
59789;BME280;47353;51.614;5.530;2023-01-28T09:35:05;103068.31;;;2.03;79.25
59789;BME280;47353;51.614;5.530;2023-01-28T09:37:31;103076.66;;;2.02;79.77
59789;BME280;47353;51.614;5.530;2023-01-28T09:39:56;103081.97;;;2.03;79.68
59789;BME280;47353;51.614;5.530;2023-01-28T09:47:47;103081.97;;;2.11;78.55
59789;BME280;47353;51.614;5.530;2023-01-28T09:50:29;103089.16;;;2.12;78.65
59789;BME280;47353;51.614;5.530;2023-01-28T09:52:58;103080.44;;;2.17;79.12
59789;BME280;47353;51.614;5.530;2023-01-28T09:55:40;103088.66;;;2.25;79.12
59789;BME280;47353;51.614;5.530;2023-01-28T09:58:13;103078.91;;;2.22;78.71
59789;BME280;47353;51.614;5.530;2023-01-28T10:03:50;103110.38;;;2.34;79.15
59789;BME280;47353;51.614;5.530;2023-01-28T10:09:24;103106.44;;;2.37;78.29
59789;BME280;47353;51.614;5.530;2023-01-28T10:22:26;103104.22;;;2.40;78.98
59789;BME280;47353;51.614;5.530;2023-01-28T10:24:56;103110.53;;;2.41;78.99
59789;BME280;47353;51.614;5.530;2023-01-28T10:27:31;103104.41;;;2.47;79.65
59789;BME280;47353;51.614;5.530;2023-01-28T10:30:15;103098.25;;;2.45;78.73
59789;BME280;47353;51.614;5.530;2023-01-28T10:32:51;103103.72;;;2.45;79.19
59789;BME280;47353;51.614;5.530;2023-01-28T10:35:19;103089.19;;;2.44;79.11
59789;BME280;47353;51.614;5.530;2023-01-28T10:37:45;103096.22;;;2.47;79.14
59789;BME280;47353;51.614;5.530;2023-01-28T10:40:17;103092.09;;;2.51;79.69
59789;BME280;47353;51.614;5.530;2023-01-28T10:42:43;103087.00;;;2.48;79.20
59789;BME280;47353;51.614;5.530;2023-01-28T10:47:45;103087.34;;;2.53;78.72
59789;BME280;47353;51.614;5.530;2023-01-28T10:50:17;103095.84;;;2.58;77.58
59789;BME280;47353;51.614;5.530;2023-01-28T10:52:54;103100.31;;;2.59;77.33
59789;BME280;47353;51.614;5.530;2023-01-28T10:55:20;103091.59;;;2.47;76.01
59789;BME280;47353;51.614;5.530;2023-01-28T10:57:45;103088.34;;;2.52;76.66
59789;BME280;47353;51.614;5.530;2023-01-28T11:00:27;103099.81;;;2.55;77.33
59789;BME280;47353;51.614;5.530;2023-01-28T11:02:55;103096.56;;;2.60;77.75
59789;BME280;47353;51.614;5.530;2023-01-28T11:05:26;103088.53;;;2.58;77.31
59789;BME280;47353;51.614;5.530;2023-01-28T11:08:03;103091.09;;;2.60;76.49
59789;BME280;47353;51.614;5.530;2023-01-28T11:10:32;103090.22;;;2.59;77.15
59789;BME280;47353;51.614;5.530;2023-01-28T11:13:00;103077.59;;;2.50;76.64
59789;BME280;47353;51.614;5.530;2023-01-28T11:15:26;103078.97;;;2.54;76.74
59789;BME280;47353;51.614;5.530;2023-01-28T11:17:57;103078.97;;;2.46;75.96
59789;BME280;47353;51.614;5.530;2023-01-28T11:20:25;103074.19;;;2.48;75.24
59789;BME280;47353;51.614;5.530;2023-01-28T11:22:51;103083.22;;;2.49;75.50
59789;BME280;47353;51.614;5.530;2023-01-28T11:25:33;103063.09;;;2.50;76.32
59789;BME280;47353;51.614;5.530;2023-01-28T11:28:06;103059.16;;;2.60;75.62
59789;BME280;47353;51.614;5.530;2023-01-28T11:30:35;103047.31;;;2.84;76.29
59789;BME280;47353;51.614;5.530;2023-01-28T11:33:17;103048.16;;;3.08;74.50
59789;BME280;47353;51.614;5.530;2023-01-28T11:35:53;103051.88;;;3.23;72.76
59789;BME280;47353;51.614;5.530;2023-01-28T11:38:20;103058.16;;;3.32;72.15
59789;BME280;47353;51.614;5.530;2023-01-28T11:40:55;103052.66;;;3.40;72.05
59789;BME280;47353;51.614;5.530;2023-01-28T11:43:23;103043.06;;;3.44;71.06
59789;BME280;47353;51.614;5.530;2023-01-28T11:51:57;103004.63;;;3.99;70.21
59789;BME280;47353;51.614;5.530;2023-01-28T11:54:35;103002.16;;;4.71;69.02
59789;BME280;47353;51.614;5.530;2023-01-28T11:59:58;102950.91;;;8.19;62.75
59789;BME280;47353;51.614;5.530;2023-01-28T12:02:45;102953.66;;;10.43;53.04
59789;BME280;47353;51.614;5.530;2023-01-28T12:05:43;102960.75;;;10.01;50.81
59789;BME280;47353;51.614;5.530;2023-01-28T12:22:15;102957.50;;;9.16;50.98
59789;BME280;47353;51.614;5.530;2023-01-28T12:24:50;102974.53;;;8.34;51.34
59789;BME280;47353;51.614;5.530;2023-01-28T12:27:26;102973.16;;;7.98;52.00
59789;BME280;47353;51.614;5.530;2023-01-28T12:41:30;102996.19;;;11.64;48.52
59789;BME280;47353;51.614;5.530;2023-01-28T12:44:02;102998.09;;;12.30;42.88
59789;BME280;47353;51.614;5.530;2023-01-28T12:46:55;103007.84;;;10.88;46.66
59789;BME280;47353;51.614;5.530;2023-01-28T12:49:43;103013.94;;;9.52;48.76
59789;BME280;47353;51.614;5.530;2023-01-28T12:52:21;103012.78;;;8.51;50.26
59789;BME280;47353;51.614;5.530;2023-01-28T12:54:56;103013.66;;;7.97;51.54
59789;BME280;47353;51.614;5.530;2023-01-28T12:57:30;102997.91;;;7.78;51.57
59789;BME280;47353;51.614;5.530;2023-01-28T13:02:37;102994.94;;;10.20;46.58
59789;BME280;47353;51.614;5.530;2023-01-28T13:05:12;103003.94;;;12.40;45.08
59789;BME280;47353;51.614;5.530;2023-01-28T13:07:53;103003.53;;;14.65;40.68
59789;BME280;47353;51.614;5.530;2023-01-28T13:10:29;103010.28;;;16.17;38.40
59789;BME280;47353;51.614;5.530;2023-01-28T13:12:58;103002.97;;;14.80;34.99
59789;BME280;47353;51.614;5.530;2023-01-28T13:15:24;103000.16;;;12.75;38.13
59789;BME280;47353;51.614;5.530;2023-01-28T13:20:57;102998.97;;;10.79;43.97
59789;BME280;47353;51.614;5.530;2023-01-28T13:23:39;103002.44;;;10.44;44.92
59789;BME280;47353;51.614;5.530;2023-01-28T13:28:43;102991.72;;;9.78;46.19
59789;BME280;47353;51.614;5.530;2023-01-28T13:31:10;102980.09;;;9.63;47.48
59789;BME280;47353;51.614;5.530;2023-01-28T13:33:47;102982.97;;;9.24;47.71
59789;BME280;47353;51.614;5.530;2023-01-28T13:36:44;102981.50;;;9.22;50.30
59789;BME280;47353;51.614;5.530;2023-01-28T13:41:41;102975.38;;;8.81;50.57
59789;BME280;47353;51.614;5.530;2023-01-28T13:44:26;102964.56;;;8.66;50.25
59789;BME280;47353;51.614;5.530;2023-01-28T13:46:54;102945.19;;;8.14;49.48
59789;BME280;47353;51.614;5.530;2023-01-28T13:54:37;102924.75;;;7.69;51.43
59789;BME280;47353;51.614;5.530;2023-01-28T14:09:13;102903.31;;;12.38;41.92
59789;BME280;47353;51.614;5.530;2023-01-28T14:12:09;102911.84;;;13.12;39.87
59789;BME280;47353;51.614;5.530;2023-01-28T14:17:48;102921.84;;;14.32;36.64
59789;BME280;47353;51.614;5.530;2023-01-28T14:20:26;102919.81;;;14.44;36.57
59789;BME280;47353;51.614;5.530;2023-01-28T14:23:01;102944.13;;;14.32;36.69
59789;BME280;47353;51.614;5.530;2023-01-28T14:25:58;102953.53;;;14.92;38.74
59789;BME280;47353;51.614;5.530;2023-01-28T14:28:40;102965.38;;;15.37;36.84
59789;BME280;47353;51.614;5.530;2023-01-28T14:31:11;102951.50;;;14.87;34.59
59789;BME280;47353;51.614;5.530;2023-01-28T14:33:39;102948.84;;;15.52;38.17
59789;BME280;47353;51.614;5.530;2023-01-28T14:36:05;102944.59;;;13.10;35.60
59789;BME280;47353;51.614;5.530;2023-01-28T14:38:38;102952.38;;;12.03;39.78
59789;BME280;47353;51.614;5.530;2023-01-28T14:41:06;102970.06;;;11.18;40.49
59789;BME280;47353;51.614;5.530;2023-01-28T14:43:33;102968.06;;;10.58;42.96
59789;BME280;47353;51.614;5.530;2023-01-28T14:46:24;102972.00;;;10.06;46.10
59789;BME280;47353;51.614;5.530;2023-01-28T14:54:33;102971.38;;;8.51;48.68
59789;BME280;47353;51.614;5.530;2023-01-28T14:57:40;102968.75;;;8.16;50.51
59789;BME280;47353;51.614;5.530;2023-01-28T15:00:26;102959.53;;;7.77;51.23
59789;BME280;47353;51.614;5.530;2023-01-28T15:02:52;102956.31;;;7.60;53.28
59789;BME280;47353;51.614;5.530;2023-01-28T15:05:23;102958.19;;;7.19;52.07
59789;BME280;47353;51.614;5.530;2023-01-28T15:07:49;102950.03;;;6.98;53.12
59789;BME280;47353;51.614;5.530;2023-01-28T15:10:24;102947.66;;;6.61;53.17
59789;BME280;47353;51.614;5.530;2023-01-28T15:12:56;102949.72;;;6.31;54.74
59789;BME280;47353;51.614;5.530;2023-01-28T15:15:28;102950.38;;;6.12;56.96